sensor_id;sensor_type;location;lat;lon;timestamp;temperature;humidity
30001;DHT22;16845;48.670;9.000;2022-09-09T00:00:44;15.00;99.90
30001;DHT22;16845;48.670;9.000;2022-09-09T00:03:17;15.00;99.90
30001;DHT22;16845;48.670;9.000;2022-09-09T00:05:56;15.20;99.90
30001;DHT22;16845;48.670;9.000;2022-09-09T00:08:35;15.20;99.90
30001;DHT22;16845;48.670;9.000;2022-09-09T00:11:07;15.30;99.90
30001;DHT22;16845;48.670;9.000;2022-09-09T00:13:42;15.30;99.90
30001;DHT22;16845;48.670;9.000;2022-09-09T00:16:18;15.30;99.90
30001;DHT22;16845;48.670;9.000;2022-09-09T00:18:56;15.30;99.90
30001;DHT22;16845;48.670;9.000;2022-09-09T00:21:31;15.30;99.90
30001;DHT22;16845;48.670;9.000;2022-09-09T00:24:07;15.40;99.90
30001;DHT22;16845;48.670;9.000;2022-09-09T00:26:41;15.40;99.90
30001;DHT22;16845;48.670;9.000;2022-09-09T00:29:14;15.40;99.90
30001;DHT22;16845;48.670;9.000;2022-09-09T00:31:46;15.40;99.90
30001;DHT22;16845;48.670;9.000;2022-09-09T00:34:18;15.40;99.90
30001;DHT22;16845;48.670;9.000;2022-09-09T00:36:49;15.40;99.90
30001;DHT22;16845;48.670;9.000;2022-09-09T00:39:24;15.40;99.90
30001;DHT22;16845;48.670;9.000;2022-09-09T00:42:04;15.40;99.90
30001;DHT22;16845;48.670;9.000;2022-09-09T00:44:38;15.40;99.90
30001;DHT22;16845;48.670;9.000;2022-09-09T00:47:23;15.30;99.90
30001;DHT22;16845;48.670;9.000;2022-09-09T00:50:00;15.40;99.90
30001;DHT22;16845;48.670;9.000;2022-09-09T00:52:38;15.40;99.90
30001;DHT22;16845;48.670;9.000;2022-09-09T00:55:13;15.40;99.90
30001;DHT22;16845;48.670;9.000;2022-09-09T00:57:43;15.40;99.90
30001;DHT22;16845;48.670;9.000;2022-09-09T01:00:21;15.40;99.90
30001;DHT22;16845;48.670;9.000;2022-09-09T01:03:25;15.40;99.90
30001;DHT22;16845;48.670;9.000;2022-09-09T01:06:02;15.40;99.90
30001;DHT22;16845;48.670;9.000;2022-09-09T01:11:49;15.40;99.90
30001;DHT22;16845;48.670;9.000;2022-09-09T01:14:39;15.30;99.90
30001;DHT22;16845;48.670;9.000;2022-09-09T01:17:13;15.30;99.90
30001;DHT22;16845;48.670;9.000;2022-09-09T01:19:55;15.30;99.90
30001;DHT22;16845;48.670;9.000;2022-09-09T01:22:31;15.20;99.90
30001;DHT22;16845;48.670;9.000;2022-09-09T01:25:30;15.30;99.90
30001;DHT22;16845;48.670;9.000;2022-09-09T01:28:02;15.20;99.90
30001;DHT22;16845;48.670;9.000;2022-09-09T01:30:32;15.20;99.90
30001;DHT22;16845;48.670;9.000;2022-09-09T01:33:00;15.20;99.90
30001;DHT22;16845;48.670;9.000;2022-09-09T01:35:37;15.20;99.90
30001;DHT22;16845;48.670;9.000;2022-09-09T01:38:07;15.30;99.90
30001;DHT22;16845;48.670;9.000;2022-09-09T01:40:35;15.30;99.90
30001;DHT22;16845;48.670;9.000;2022-09-09T01:43:05;15.30;99.90
30001;DHT22;16845;48.670;9.000;2022-09-09T01:45:34;15.30;99.90
30001;DHT22;16845;48.670;9.000;2022-09-09T01:48:03;15.30;99.90
30001;DHT22;16845;48.670;9.000;2022-09-09T01:50:31;15.20;99.90
30001;DHT22;16845;48.670;9.000;2022-09-09T01:52:59;15.10;99.90
30001;DHT22;16845;48.670;9.000;2022-09-09T01:55:30;15.00;99.90
30001;DHT22;16845;48.670;9.000;2022-09-09T01:58:14;15.00;99.90
30001;DHT22;16845;48.670;9.000;2022-09-09T02:00:54;14.90;99.90
30001;DHT22;16845;48.670;9.000;2022-09-09T02:03:27;14.90;99.90
30001;DHT22;16845;48.670;9.000;2022-09-09T02:06:02;14.90;99.90
30001;DHT22;16845;48.670;9.000;2022-09-09T02:08:39;14.80;99.90
30001;DHT22;16845;48.670;9.000;2022-09-09T02:11:11;14.70;99.90
30001;DHT22;16845;48.670;9.000;2022-09-09T02:13:44;14.70;99.90
30001;DHT22;16845;48.670;9.000;2022-09-09T02:16:17;14.70;99.90
30001;DHT22;16845;48.670;9.000;2022-09-09T02:18:50;14.70;99.90
30001;DHT22;16845;48.670;9.000;2022-09-09T02:21:19;14.70;99.90
30001;DHT22;16845;48.670;9.000;2022-09-09T02:23:49;14.70;99.90
30001;DHT22;16845;48.670;9.000;2022-09-09T02:26:19;14.70;99.90
30001;DHT22;16845;48.670;9.000;2022-09-09T02:28:54;14.70;99.90
30001;DHT22;16845;48.670;9.000;2022-09-09T02:31:24;14.70;99.90
30001;DHT22;16845;48.670;9.000;2022-09-09T02:33:55;14.70;99.90
30001;DHT22;16845;48.670;9.000;2022-09-09T02:36:26;14.80;99.90
30001;DHT22;16845;48.670;9.000;2022-09-09T02:38:56;14.70;99.90
30001;DHT22;16845;48.670;9.000;2022-09-09T02:41:27;14.70;99.90
30001;DHT22;16845;48.670;9.000;2022-09-09T02:44:00;14.60;99.90
30001;DHT22;16845;48.670;9.000;2022-09-09T02:46:36;14.60;99.90
30001;DHT22;16845;48.670;9.000;2022-09-09T02:49:10;14.60;99.90
30001;DHT22;16845;48.670;9.000;2022-09-09T02:51:48;14.60;99.90
30001;DHT22;16845;48.670;9.000;2022-09-09T02:54:22;14.50;99.90
30001;DHT22;16845;48.670;9.000;2022-09-09T02:56:53;14.50;99.90
30001;DHT22;16845;48.670;9.000;2022-09-09T02:59:25;14.60;99.90
30001;DHT22;16845;48.670;9.000;2022-09-09T03:01:53;14.60;99.90
30001;DHT22;16845;48.670;9.000;2022-09-09T03:04:21;14.50;99.90
30001;DHT22;16845;48.670;9.000;2022-09-09T03:06:50;14.50;99.90
30001;DHT22;16845;48.670;9.000;2022-09-09T03:09:18;14.60;99.90
30001;DHT22;16845;48.670;9.000;2022-09-09T03:11:46;14.60;99.90
30001;DHT22;16845;48.670;9.000;2022-09-09T03:14:15;14.60;99.90
30001;DHT22;16845;48.670;9.000;2022-09-09T03:16:44;14.60;99.90
30001;DHT22;16845;48.670;9.000;2022-09-09T03:19:12;14.60;99.90
30001;DHT22;16845;48.670;9.000;2022-09-09T03:21:40;14.60;99.90
30001;DHT22;16845;48.670;9.000;2022-09-09T03:24:08;14.60;99.90
30001;DHT22;16845;48.670;9.000;2022-09-09T03:26:36;14.60;99.90
30001;DHT22;16845;48.670;9.000;2022-09-09T03:29:04;14.60;99.90
30001;DHT22;16845;48.670;9.000;2022-09-09T03:31:33;14.50;99.90
30001;DHT22;16845;48.670;9.000;2022-09-09T03:34:04;14.60;99.90
30001;DHT22;16845;48.670;9.000;2022-09-09T03:36:32;14.50;99.90
30001;DHT22;16845;48.670;9.000;2022-09-09T03:39:00;14.50;99.90
30001;DHT22;16845;48.670;9.000;2022-09-09T03:41:29;14.50;99.90
30001;DHT22;16845;48.670;9.000;2022-09-09T03:43:58;14.40;99.90
30001;DHT22;16845;48.670;9.000;2022-09-09T03:46:26;14.40;99.90
30001;DHT22;16845;48.670;9.000;2022-09-09T03:48:54;14.40;99.90
30001;DHT22;16845;48.670;9.000;2022-09-09T03:51:23;14.40;99.90
30001;DHT22;16845;48.670;9.000;2022-09-09T03:53:51;14.40;99.90
30001;DHT22;16845;48.670;9.000;2022-09-09T03:56:21;14.30;99.90
30001;DHT22;16845;48.670;9.000;2022-09-09T03:58:49;14.40;99.90
30001;DHT22;16845;48.670;9.000;2022-09-09T04:01:17;14.30;99.90
30001;DHT22;16845;48.670;9.000;2022-09-09T04:03:45;14.30;99.90
30001;DHT22;16845;48.670;9.000;2022-09-09T04:06:13;14.30;99.90
30001;DHT22;16845;48.670;9.000;2022-09-09T04:08:43;14.30;99.90
30001;DHT22;16845;48.670;9.000;2022-09-09T04:11:11;14.40;99.90
30001;DHT22;16845;48.670;9.000;2022-09-09T04:13:39;14.40;99.90
30001;DHT22;16845;48.670;9.000;2022-09-09T04:16:10;14.50;99.90
30001;DHT22;16845;48.670;9.000;2022-09-09T04:18:39;14.50;99.90
30001;DHT22;16845;48.670;9.000;2022-09-09T04:21:08;14.50;99.90
30001;DHT22;16845;48.670;9.000;2022-09-09T04:23:36;14.50;99.90
30001;DHT22;16845;48.670;9.000;2022-09-09T04:26:06;14.50;99.90
30001;DHT22;16845;48.670;9.000;2022-09-09T04:28:36;14.50;99.90
30001;DHT22;16845;48.670;9.000;2022-09-09T04:31:06;14.50;99.90
30001;DHT22;16845;48.670;9.000;2022-09-09T04:33:34;14.50;99.90
30001;DHT22;16845;48.670;9.000;2022-09-09T04:36:06;14.50;99.90
30001;DHT22;16845;48.670;9.000;2022-09-09T04:38:35;14.50;99.90
30001;DHT22;16845;48.670;9.000;2022-09-09T04:41:03;14.60;99.90
30001;DHT22;16845;48.670;9.000;2022-09-09T04:43:32;14.60;99.90
30001;DHT22;16845;48.670;9.000;2022-09-09T04:46:01;14.50;99.90
30001;DHT22;16845;48.670;9.000;2022-09-09T04:48:29;14.50;99.90
30001;DHT22;16845;48.670;9.000;2022-09-09T04:50:59;14.50;99.90
30001;DHT22;16845;48.670;9.000;2022-09-09T04:53:28;14.50;99.90
30001;DHT22;16845;48.670;9.000;2022-09-09T04:56:03;14.50;99.90
30001;DHT22;16845;48.670;9.000;2022-09-09T04:58:33;14.40;99.90
30001;DHT22;16845;48.670;9.000;2022-09-09T05:01:06;14.40;99.90
30001;DHT22;16845;48.670;9.000;2022-09-09T05:03:34;14.40;99.90
30001;DHT22;16845;48.670;9.000;2022-09-09T05:06:03;14.40;99.90
30001;DHT22;16845;48.670;9.000;2022-09-09T05:08:31;14.50;99.90
30001;DHT22;16845;48.670;9.000;2022-09-09T05:10:59;14.50;99.90
30001;DHT22;16845;48.670;9.000;2022-09-09T05:13:27;14.40;99.90
30001;DHT22;16845;48.670;9.000;2022-09-09T05:15:57;14.40;99.90
30001;DHT22;16845;48.670;9.000;2022-09-09T05:18:25;14.50;99.90
30001;DHT22;16845;48.670;9.000;2022-09-09T05:20:58;14.40;99.90
30001;DHT22;16845;48.670;9.000;2022-09-09T05:23:26;14.50;99.90
30001;DHT22;16845;48.670;9.000;2022-09-09T05:25:56;14.50;99.90
30001;DHT22;16845;48.670;9.000;2022-09-09T05:28:24;14.50;99.90
30001;DHT22;16845;48.670;9.000;2022-09-09T05:30:58;14.60;99.90
30001;DHT22;16845;48.670;9.000;2022-09-09T05:33:27;14.70;99.90
30001;DHT22;16845;48.670;9.000;2022-09-09T05:35:57;14.70;99.90
30001;DHT22;16845;48.670;9.000;2022-09-09T05:38:25;14.80;99.90
30001;DHT22;16845;48.670;9.000;2022-09-09T05:40:54;14.80;99.90
30001;DHT22;16845;48.670;9.000;2022-09-09T05:43:23;14.90;99.90
30001;DHT22;16845;48.670;9.000;2022-09-09T05:46:03;14.80;99.90
30001;DHT22;16845;48.670;9.000;2022-09-09T05:48:33;14.80;99.90
30001;DHT22;16845;48.670;9.000;2022-09-09T05:51:02;14.90;99.90
30001;DHT22;16845;48.670;9.000;2022-09-09T05:53:31;14.90;99.90
30001;DHT22;16845;48.670;9.000;2022-09-09T05:56:01;14.90;99.90
30001;DHT22;16845;48.670;9.000;2022-09-09T05:58:31;14.90;99.90
30001;DHT22;16845;48.670;9.000;2022-09-09T06:01:05;14.90;99.90
30001;DHT22;16845;48.670;9.000;2022-09-09T06:03:34;14.90;99.90
30001;DHT22;16845;48.670;9.000;2022-09-09T06:06:04;14.90;99.90
30001;DHT22;16845;48.670;9.000;2022-09-09T06:08:33;15.00;99.90
30001;DHT22;16845;48.670;9.000;2022-09-09T06:11:02;15.00;99.90
30001;DHT22;16845;48.670;9.000;2022-09-09T06:13:31;15.00;99.90
30001;DHT22;16845;48.670;9.000;2022-09-09T06:15:59;15.10;99.90
30001;DHT22;16845;48.670;9.000;2022-09-09T06:18:28;15.20;99.90
30001;DHT22;16845;48.670;9.000;2022-09-09T06:20:57;15.10;99.90
30001;DHT22;16845;48.670;9.000;2022-09-09T06:23:27;15.00;99.90
30001;DHT22;16845;48.670;9.000;2022-09-09T06:26:06;15.10;99.90
30001;DHT22;16845;48.670;9.000;2022-09-09T06:28:35;15.20;99.90
30001;DHT22;16845;48.670;9.000;2022-09-09T06:31:06;15.30;99.90
30001;DHT22;16845;48.670;9.000;2022-09-09T06:33:37;15.30;99.90
30001;DHT22;16845;48.670;9.000;2022-09-09T06:36:10;15.40;99.90
30001;DHT22;16845;48.670;9.000;2022-09-09T06:38:39;15.50;99.90
30001;DHT22;16845;48.670;9.000;2022-09-09T06:41:08;15.60;99.90
30001;DHT22;16845;48.670;9.000;2022-09-09T06:43:36;15.80;99.90
30001;DHT22;16845;48.670;9.000;2022-09-09T06:46:08;15.90;99.90
30001;DHT22;16845;48.670;9.000;2022-09-09T06:48:38;16.00;99.90
30001;DHT22;16845;48.670;9.000;2022-09-09T06:51:09;16.00;99.90
30001;DHT22;16845;48.670;9.000;2022-09-09T06:53:38;16.10;99.90
30001;DHT22;16845;48.670;9.000;2022-09-09T06:56:19;16.30;99.90
30001;DHT22;16845;48.670;9.000;2022-09-09T06:58:48;16.40;99.90
30001;DHT22;16845;48.670;9.000;2022-09-09T07:01:18;16.60;99.90
30001;DHT22;16845;48.670;9.000;2022-09-09T07:03:49;16.60;99.90
30001;DHT22;16845;48.670;9.000;2022-09-09T07:06:19;16.70;99.90
30001;DHT22;16845;48.670;9.000;2022-09-09T07:08:50;16.70;99.90
30001;DHT22;16845;48.670;9.000;2022-09-09T07:11:23;16.80;99.90
30001;DHT22;16845;48.670;9.000;2022-09-09T07:13:52;16.90;99.90
30001;DHT22;16845;48.670;9.000;2022-09-09T07:16:21;16.80;99.90
30001;DHT22;16845;48.670;9.000;2022-09-09T07:18:53;16.80;99.90
30001;DHT22;16845;48.670;9.000;2022-09-09T07:21:25;16.90;99.90
30001;DHT22;16845;48.670;9.000;2022-09-09T07:23:54;16.90;99.90
30001;DHT22;16845;48.670;9.000;2022-09-09T07:26:23;17.20;99.90
30001;DHT22;16845;48.670;9.000;2022-09-09T07:28:52;17.40;99.90
30001;DHT22;16845;48.670;9.000;2022-09-09T07:31:21;17.70;99.90
30001;DHT22;16845;48.670;9.000;2022-09-09T07:33:49;17.90;99.90
30001;DHT22;16845;48.670;9.000;2022-09-09T07:36:20;18.10;99.90
30001;DHT22;16845;48.670;9.000;2022-09-09T07:38:51;18.00;99.90
30001;DHT22;16845;48.670;9.000;2022-09-09T07:41:21;18.10;99.90
30001;DHT22;16845;48.670;9.000;2022-09-09T07:43:50;18.30;99.90
30001;DHT22;16845;48.670;9.000;2022-09-09T07:46:19;18.90;99.90
30001;DHT22;16845;48.670;9.000;2022-09-09T07:48:49;19.40;99.90
30001;DHT22;16845;48.670;9.000;2022-09-09T07:51:21;19.60;99.90
30001;DHT22;16845;48.670;9.000;2022-09-09T07:53:52;19.60;99.90
30001;DHT22;16845;48.670;9.000;2022-09-09T07:56:20;19.80;99.90
30001;DHT22;16845;48.670;9.000;2022-09-09T07:58:50;20.10;99.90
30001;DHT22;16845;48.670;9.000;2022-09-09T08:01:19;20.60;99.90
30001;DHT22;16845;48.670;9.000;2022-09-09T08:03:53;21.10;99.90
30001;DHT22;16845;48.670;9.000;2022-09-09T08:06:23;21.10;99.90
30001;DHT22;16845;48.670;9.000;2022-09-09T08:08:52;21.40;99.90
30001;DHT22;16845;48.670;9.000;2022-09-09T08:11:22;22.00;99.90
30001;DHT22;16845;48.670;9.000;2022-09-09T08:13:51;21.90;99.90
30001;DHT22;16845;48.670;9.000;2022-09-09T08:16:27;22.20;99.90
30001;DHT22;16845;48.670;9.000;2022-09-09T08:18:55;22.90;99.90
30001;DHT22;16845;48.670;9.000;2022-09-09T08:21:26;22.70;99.90
30001;DHT22;16845;48.670;9.000;2022-09-09T08:23:55;22.70;99.90
30001;DHT22;16845;48.670;9.000;2022-09-09T08:26:25;22.60;99.90
30001;DHT22;16845;48.670;9.000;2022-09-09T08:28:55;22.80;99.90
30001;DHT22;16845;48.670;9.000;2022-09-09T08:31:25;23.00;99.90
30001;DHT22;16845;48.670;9.000;2022-09-09T08:33:55;23.40;99.90
30001;DHT22;16845;48.670;9.000;2022-09-09T08:36:26;23.60;99.90
30001;DHT22;16845;48.670;9.000;2022-09-09T08:38:56;23.70;99.90
30001;DHT22;16845;48.670;9.000;2022-09-09T08:44:50;24.50;99.90
30001;DHT22;16845;48.670;9.000;2022-09-09T08:47:28;25.50;99.90
30001;DHT22;16845;48.670;9.000;2022-09-09T08:50:07;25.10;99.90
30001;DHT22;16845;48.670;9.000;2022-09-09T08:52:49;24.80;99.90
30001;DHT22;16845;48.670;9.000;2022-09-09T08:55:24;24.00;99.90
30001;DHT22;16845;48.670;9.000;2022-09-09T08:57:56;23.10;99.90
30001;DHT22;16845;48.670;9.000;2022-09-09T09:00:33;22.00;99.90
30001;DHT22;16845;48.670;9.000;2022-09-09T09:03:07;20.40;99.90
30001;DHT22;16845;48.670;9.000;2022-09-09T09:05:44;19.10;99.90
30001;DHT22;16845;48.670;9.000;2022-09-09T09:08:24;17.80;99.90
30001;DHT22;16845;48.670;9.000;2022-09-09T09:10:55;17.00;99.90
30001;DHT22;16845;48.670;9.000;2022-09-09T09:13:30;16.40;99.90
30001;DHT22;16845;48.670;9.000;2022-09-09T09:16:14;16.00;99.90
30001;DHT22;16845;48.670;9.000;2022-09-09T09:18:45;15.60;99.90
30001;DHT22;16845;48.670;9.000;2022-09-09T09:21:17;15.70;99.90
30001;DHT22;16845;48.670;9.000;2022-09-09T09:23:54;16.90;99.90
30001;DHT22;16845;48.670;9.000;2022-09-09T09:26:25;18.50;99.90
30001;DHT22;16845;48.670;9.000;2022-09-09T09:28:55;19.60;99.90
30001;DHT22;16845;48.670;9.000;2022-09-09T09:31:23;20.00;99.90
30001;DHT22;16845;48.670;9.000;2022-09-09T09:33:54;19.90;99.90
30001;DHT22;16845;48.670;9.000;2022-09-09T09:36:24;19.60;99.90
30001;DHT22;16845;48.670;9.000;2022-09-09T09:39:03;20.20;99.90
30001;DHT22;16845;48.670;9.000;2022-09-09T09:41:52;20.80;99.90
30001;DHT22;16845;48.670;9.000;2022-09-09T09:44:27;22.70;99.90
30001;DHT22;16845;48.670;9.000;2022-09-09T09:47:06;24.20;99.90
30001;DHT22;16845;48.670;9.000;2022-09-09T09:49:34;25.20;99.90
30001;DHT22;16845;48.670;9.000;2022-09-09T09:52:03;25.50;99.90
30001;DHT22;16845;48.670;9.000;2022-09-09T09:54:37;25.50;99.90
30001;DHT22;16845;48.670;9.000;2022-09-09T09:57:10;26.30;99.90
30001;DHT22;16845;48.670;9.000;2022-09-09T09:59:39;26.90;99.90
30001;DHT22;16845;48.670;9.000;2022-09-09T10:02:15;26.50;99.90
30001;DHT22;16845;48.670;9.000;2022-09-09T10:04:44;25.30;99.90
30001;DHT22;16845;48.670;9.000;2022-09-09T10:07:17;24.70;99.90
30001;DHT22;16845;48.670;9.000;2022-09-09T10:09:50;24.00;99.90
30001;DHT22;16845;48.670;9.000;2022-09-09T10:12:28;23.00;99.90
30001;DHT22;16845;48.670;9.000;2022-09-09T10:15:02;21.90;99.90
30001;DHT22;16845;48.670;9.000;2022-09-09T10:17:39;21.10;99.90
30001;DHT22;16845;48.670;9.000;2022-09-09T10:20:21;20.50;99.90
30001;DHT22;16845;48.670;9.000;2022-09-09T10:22:57;20.20;99.90
30001;DHT22;16845;48.670;9.000;2022-09-09T10:25:40;19.80;99.90
30001;DHT22;16845;48.670;9.000;2022-09-09T10:28:37;19.30;99.90
30001;DHT22;16845;48.670;9.000;2022-09-09T10:31:18;19.10;99.90
30001;DHT22;16845;48.670;9.000;2022-09-09T10:33:51;18.90;99.90
30001;DHT22;16845;48.670;9.000;2022-09-09T10:36:25;18.80;99.90
30001;DHT22;16845;48.670;9.000;2022-09-09T10:38:58;19.20;99.90
30001;DHT22;16845;48.670;9.000;2022-09-09T10:41:42;19.70;99.90
30001;DHT22;16845;48.670;9.000;2022-09-09T10:44:22;20.00;99.90
30001;DHT22;16845;48.670;9.000;2022-09-09T10:47:07;19.90;99.90
30001;DHT22;16845;48.670;9.000;2022-09-09T10:49:49;20.00;99.90
30001;DHT22;16845;48.670;9.000;2022-09-09T10:52:24;19.90;99.90
30001;DHT22;16845;48.670;9.000;2022-09-09T10:54:58;20.30;99.90
30001;DHT22;16845;48.670;9.000;2022-09-09T10:57:33;20.70;99.90
30001;DHT22;16845;48.670;9.000;2022-09-09T11:00:10;20.80;99.90
30001;DHT22;16845;48.670;9.000;2022-09-09T11:02:41;20.40;99.90
30001;DHT22;16845;48.670;9.000;2022-09-09T11:05:14;20.30;99.90
30001;DHT22;16845;48.670;9.000;2022-09-09T11:07:52;20.30;99.90
30001;DHT22;16845;48.670;9.000;2022-09-09T11:10:26;20.00;99.90
30001;DHT22;16845;48.670;9.000;2022-09-09T11:13:02;19.50;99.90
30001;DHT22;16845;48.670;9.000;2022-09-09T11:15:36;19.00;99.90
30001;DHT22;16845;48.670;9.000;2022-09-09T11:18:10;18.70;99.90
30001;DHT22;16845;48.670;9.000;2022-09-09T11:20:41;18.20;99.90
30001;DHT22;16845;48.670;9.000;2022-09-09T11:23:12;18.10;99.90
30001;DHT22;16845;48.670;9.000;2022-09-09T11:25:43;17.80;99.90
30001;DHT22;16845;48.670;9.000;2022-09-09T11:28:32;17.80;99.90
30001;DHT22;16845;48.670;9.000;2022-09-09T11:31:16;17.90;99.90
30001;DHT22;16845;48.670;9.000;2022-09-09T11:33:56;17.80;99.90
30001;DHT22;16845;48.670;9.000;2022-09-09T11:36:43;18.00;99.90
30001;DHT22;16845;48.670;9.000;2022-09-09T11:39:35;17.80;99.90
30001;DHT22;16845;48.670;9.000;2022-09-09T11:42:07;17.60;99.90
30001;DHT22;16845;48.670;9.000;2022-09-09T11:44:44;17.80;99.90
30001;DHT22;16845;48.670;9.000;2022-09-09T11:47:20;17.90;99.90
30001;DHT22;16845;48.670;9.000;2022-09-09T11:49:50;18.40;99.90
30001;DHT22;16845;48.670;9.000;2022-09-09T11:52:23;18.70;99.90
30001;DHT22;16845;48.670;9.000;2022-09-09T11:54:54;19.20;99.90
30001;DHT22;16845;48.670;9.000;2022-09-09T11:57:30;19.60;99.90
30001;DHT22;16845;48.670;9.000;2022-09-09T12:00:02;19.50;99.90
30001;DHT22;16845;48.670;9.000;2022-09-09T12:02:30;19.60;99.90
30001;DHT22;16845;48.670;9.000;2022-09-09T12:05:02;19.60;99.90
30001;DHT22;16845;48.670;9.000;2022-09-09T12:07:34;19.90;99.90
30001;DHT22;16845;48.670;9.000;2022-09-09T12:10:05;20.40;99.90
30001;DHT22;16845;48.670;9.000;2022-09-09T12:12:46;21.60;99.90
30001;DHT22;16845;48.670;9.000;2022-09-09T12:15:27;22.80;99.90
30001;DHT22;16845;48.670;9.000;2022-09-09T12:17:57;22.80;99.90
30001;DHT22;16845;48.670;9.000;2022-09-09T12:20:34;23.20;99.90
30001;DHT22;16845;48.670;9.000;2022-09-09T12:23:23;23.00;99.90
30001;DHT22;16845;48.670;9.000;2022-09-09T12:26:03;23.30;99.90
30001;DHT22;16845;48.670;9.000;2022-09-09T12:28:44;22.50;99.90
30001;DHT22;16845;48.670;9.000;2022-09-09T12:31:17;22.10;99.90
30001;DHT22;16845;48.670;9.000;2022-09-09T12:33:48;21.30;99.90
30001;DHT22;16845;48.670;9.000;2022-09-09T12:36:19;20.90;99.90
30001;DHT22;16845;48.670;9.000;2022-09-09T12:38:49;20.10;99.90
30001;DHT22;16845;48.670;9.000;2022-09-09T12:41:20;19.90;99.90
30001;DHT22;16845;48.670;9.000;2022-09-09T12:43:48;19.90;99.90
30001;DHT22;16845;48.670;9.000;2022-09-09T12:46:27;20.10;99.90
30001;DHT22;16845;48.670;9.000;2022-09-09T12:48:58;20.30;99.90
30001;DHT22;16845;48.670;9.000;2022-09-09T12:51:28;20.10;99.90
30001;DHT22;16845;48.670;9.000;2022-09-09T12:53:57;19.90;99.90
30001;DHT22;16845;48.670;9.000;2022-09-09T12:56:27;20.20;99.90
30001;DHT22;16845;48.670;9.000;2022-09-09T12:58:57;20.30;99.90
30001;DHT22;16845;48.670;9.000;2022-09-09T13:01:29;21.00;99.90
30001;DHT22;16845;48.670;9.000;2022-09-09T13:03:57;23.60;99.90
30001;DHT22;16845;48.670;9.000;2022-09-09T13:06:27;26.50;99.90
30001;DHT22;16845;48.670;9.000;2022-09-09T13:08:56;29.50;96.70
30001;DHT22;16845;48.670;9.000;2022-09-09T13:11:27;30.30;93.30
30001;DHT22;16845;48.670;9.000;2022-09-09T13:13:57;31.30;92.60
30001;DHT22;16845;48.670;9.000;2022-09-09T13:16:29;32.50;90.60
30001;DHT22;16845;48.670;9.000;2022-09-09T13:18:59;31.30;88.50
30001;DHT22;16845;48.670;9.000;2022-09-09T13:21:33;30.50;86.50
30001;DHT22;16845;48.670;9.000;2022-09-09T13:24:01;30.30;89.90
30001;DHT22;16845;48.670;9.000;2022-09-09T13:26:30;29.30;89.90
30001;DHT22;16845;48.670;9.000;2022-09-09T13:29:14;27.70;91.30
30001;DHT22;16845;48.670;9.000;2022-09-09T13:31:46;25.70;91.70
30001;DHT22;16845;48.670;9.000;2022-09-09T13:34:24;24.60;93.60
30001;DHT22;16845;48.670;9.000;2022-09-09T13:39:25;23.60;95.40
30001;DHT22;16845;48.670;9.000;2022-09-09T13:41:53;23.40;96.10
30001;DHT22;16845;48.670;9.000;2022-09-09T13:44:25;22.70;96.30
30001;DHT22;16845;48.670;9.000;2022-09-09T13:47:02;21.80;96.70
30001;DHT22;16845;48.670;9.000;2022-09-09T13:49:36;21.40;97.40
30001;DHT22;16845;48.670;9.000;2022-09-09T13:52:08;21.20;97.20
30001;DHT22;16845;48.670;9.000;2022-09-09T13:54:36;20.90;97.00
30001;DHT22;16845;48.670;9.000;2022-09-09T13:57:04;21.00;98.20
30001;DHT22;16845;48.670;9.000;2022-09-09T13:59:32;20.90;99.00
30001;DHT22;16845;48.670;9.000;2022-09-09T14:02:22;21.00;98.80
30001;DHT22;16845;48.670;9.000;2022-09-09T14:04:51;21.10;99.20
30001;DHT22;16845;48.670;9.000;2022-09-09T14:07:22;21.00;97.30
30001;DHT22;16845;48.670;9.000;2022-09-09T14:09:50;21.00;98.80
30001;DHT22;16845;48.670;9.000;2022-09-09T14:12:19;21.00;97.70
30001;DHT22;16845;48.670;9.000;2022-09-09T14:14:47;21.00;99.00
30001;DHT22;16845;48.670;9.000;2022-09-09T14:17:14;21.00;97.30
30001;DHT22;16845;48.670;9.000;2022-09-09T14:19:43;21.10;97.30
30001;DHT22;16845;48.670;9.000;2022-09-09T14:22:12;21.10;98.30
30001;DHT22;16845;48.670;9.000;2022-09-09T14:24:39;21.10;99.20
30001;DHT22;16845;48.670;9.000;2022-09-09T14:27:08;21.10;96.60
30001;DHT22;16845;48.670;9.000;2022-09-09T14:29:36;21.10;97.60
30001;DHT22;16845;48.670;9.000;2022-09-09T14:32:04;21.10;95.80
30001;DHT22;16845;48.670;9.000;2022-09-09T14:34:38;21.20;97.00
30001;DHT22;16845;48.670;9.000;2022-09-09T14:37:08;21.30;96.20
30001;DHT22;16845;48.670;9.000;2022-09-09T14:39:36;21.40;96.50
30001;DHT22;16845;48.670;9.000;2022-09-09T14:42:04;21.30;96.10
30001;DHT22;16845;48.670;9.000;2022-09-09T14:44:33;21.00;97.50
30001;DHT22;16845;48.670;9.000;2022-09-09T14:47:01;20.80;96.60
30001;DHT22;16845;48.670;9.000;2022-09-09T14:49:29;20.60;96.50
30001;DHT22;16845;48.670;9.000;2022-09-09T14:51:56;20.40;97.10
30001;DHT22;16845;48.670;9.000;2022-09-09T14:54:26;20.40;97.60
30001;DHT22;16845;48.670;9.000;2022-09-09T14:56:55;20.40;97.10
30001;DHT22;16845;48.670;9.000;2022-09-09T14:59:23;20.40;96.90
30001;DHT22;16845;48.670;9.000;2022-09-09T15:01:51;20.40;97.80
30001;DHT22;16845;48.670;9.000;2022-09-09T15:04:19;20.50;98.40
30001;DHT22;16845;48.670;9.000;2022-09-09T15:06:48;20.70;98.00
30001;DHT22;16845;48.670;9.000;2022-09-09T15:09:18;20.90;98.20
30001;DHT22;16845;48.670;9.000;2022-09-09T15:11:48;21.00;97.30
30001;DHT22;16845;48.670;9.000;2022-09-09T15:14:16;20.90;97.90
30001;DHT22;16845;48.670;9.000;2022-09-09T15:16:49;20.80;98.40
30001;DHT22;16845;48.670;9.000;2022-09-09T15:19:17;20.80;98.50
30001;DHT22;16845;48.670;9.000;2022-09-09T15:21:45;20.70;98.40
30001;DHT22;16845;48.670;9.000;2022-09-09T15:24:13;20.70;98.30
30001;DHT22;16845;48.670;9.000;2022-09-09T15:26:40;20.70;98.70
30001;DHT22;16845;48.670;9.000;2022-09-09T15:29:10;20.60;98.30
30001;DHT22;16845;48.670;9.000;2022-09-09T15:31:37;20.70;96.20
30001;DHT22;16845;48.670;9.000;2022-09-09T15:34:06;20.50;98.10
30001;DHT22;16845;48.670;9.000;2022-09-09T15:36:35;20.30;96.90
30001;DHT22;16845;48.670;9.000;2022-09-09T15:39:05;20.10;97.50
30001;DHT22;16845;48.670;9.000;2022-09-09T15:41:33;19.80;98.30
30001;DHT22;16845;48.670;9.000;2022-09-09T15:44:02;19.50;99.30
30001;DHT22;16845;48.670;9.000;2022-09-09T15:46:33;19.30;98.80
30001;DHT22;16845;48.670;9.000;2022-09-09T15:49:06;19.10;99.20
30001;DHT22;16845;48.670;9.000;2022-09-09T15:51:36;19.10;99.80
30001;DHT22;16845;48.670;9.000;2022-09-09T15:54:11;19.00;99.60
30001;DHT22;16845;48.670;9.000;2022-09-09T15:56:40;19.10;99.90
30001;DHT22;16845;48.670;9.000;2022-09-09T15:59:08;19.00;99.90
30001;DHT22;16845;48.670;9.000;2022-09-09T16:01:38;19.00;99.90
30001;DHT22;16845;48.670;9.000;2022-09-09T16:04:07;19.00;99.90
30001;DHT22;16845;48.670;9.000;2022-09-09T16:06:35;19.00;99.80
30001;DHT22;16845;48.670;9.000;2022-09-09T16:09:05;19.00;99.90